sensor_id;sensor_type;location;lat;lon;timestamp;temperature;humidity
11426;DHT22;5769;47.998;7.788;2022-12-07T00:01:05;19.60;64.30
11426;DHT22;5769;47.998;7.788;2022-12-07T00:03:36;19.60;64.30
11426;DHT22;5769;47.998;7.788;2022-12-07T00:06:06;19.60;64.30
11426;DHT22;5769;47.998;7.788;2022-12-07T00:08:34;19.60;64.40
11426;DHT22;5769;47.998;7.788;2022-12-07T00:11:01;19.60;64.30
11426;DHT22;5769;47.998;7.788;2022-12-07T00:13:29;19.60;64.30
11426;DHT22;5769;47.998;7.788;2022-12-07T00:16:00;19.60;64.40
11426;DHT22;5769;47.998;7.788;2022-12-07T00:18:27;19.60;64.30
11426;DHT22;5769;47.998;7.788;2022-12-07T00:20:59;19.60;64.40
11426;DHT22;5769;47.998;7.788;2022-12-07T00:23:25;19.60;64.40
11426;DHT22;5769;47.998;7.788;2022-12-07T00:25:52;19.60;64.40
11426;DHT22;5769;47.998;7.788;2022-12-07T00:28:19;19.60;64.50
11426;DHT22;5769;47.998;7.788;2022-12-07T00:30:46;19.60;64.40
11426;DHT22;5769;47.998;7.788;2022-12-07T00:33:12;19.50;64.40
11426;DHT22;5769;47.998;7.788;2022-12-07T00:35:39;19.50;64.40
11426;DHT22;5769;47.998;7.788;2022-12-07T00:38:07;19.50;64.40
11426;DHT22;5769;47.998;7.788;2022-12-07T00:40:34;19.50;64.30
11426;DHT22;5769;47.998;7.788;2022-12-07T00:43:00;19.50;64.30
11426;DHT22;5769;47.998;7.788;2022-12-07T00:45:27;19.50;64.40
11426;DHT22;5769;47.998;7.788;2022-12-07T00:47:54;19.50;64.40
11426;DHT22;5769;47.998;7.788;2022-12-07T00:50:20;19.50;64.40
11426;DHT22;5769;47.998;7.788;2022-12-07T00:52:47;19.50;64.40
11426;DHT22;5769;47.998;7.788;2022-12-07T00:55:15;19.50;64.40
11426;DHT22;5769;47.998;7.788;2022-12-07T00:57:42;19.50;64.40
11426;DHT22;5769;47.998;7.788;2022-12-07T01:00:09;19.50;64.30
11426;DHT22;5769;47.998;7.788;2022-12-07T01:02:35;19.50;64.40
11426;DHT22;5769;47.998;7.788;2022-12-07T01:05:02;19.50;64.40
11426;DHT22;5769;47.998;7.788;2022-12-07T01:07:29;19.50;64.40
11426;DHT22;5769;47.998;7.788;2022-12-07T01:09:56;19.50;64.40
11426;DHT22;5769;47.998;7.788;2022-12-07T01:12:24;19.50;64.40
11426;DHT22;5769;47.998;7.788;2022-12-07T01:14:50;19.50;64.40
11426;DHT22;5769;47.998;7.788;2022-12-07T01:17:17;19.50;64.40
11426;DHT22;5769;47.998;7.788;2022-12-07T01:19:44;19.50;64.40
11426;DHT22;5769;47.998;7.788;2022-12-07T01:22:10;19.50;64.40
11426;DHT22;5769;47.998;7.788;2022-12-07T01:24:37;19.50;64.30
11426;DHT22;5769;47.998;7.788;2022-12-07T01:27:04;19.50;64.30
11426;DHT22;5769;47.998;7.788;2022-12-07T01:29:32;19.50;64.30
11426;DHT22;5769;47.998;7.788;2022-12-07T01:31:59;19.50;64.40
11426;DHT22;5769;47.998;7.788;2022-12-07T01:34:25;19.50;64.30
11426;DHT22;5769;47.998;7.788;2022-12-07T01:36:52;19.50;64.30
11426;DHT22;5769;47.998;7.788;2022-12-07T01:39:19;19.50;64.40
11426;DHT22;5769;47.998;7.788;2022-12-07T01:41:45;19.50;64.40
11426;DHT22;5769;47.998;7.788;2022-12-07T01:44:18;19.50;64.40
11426;DHT22;5769;47.998;7.788;2022-12-07T01:46:47;19.40;64.40
11426;DHT22;5769;47.998;7.788;2022-12-07T01:49:22;19.50;64.40
11426;DHT22;5769;47.998;7.788;2022-12-07T01:51:54;19.40;64.30
11426;DHT22;5769;47.998;7.788;2022-12-07T01:54:22;19.40;64.30
11426;DHT22;5769;47.998;7.788;2022-12-07T01:56:51;19.50;64.40
11426;DHT22;5769;47.998;7.788;2022-12-07T01:59:19;19.40;64.30
11426;DHT22;5769;47.998;7.788;2022-12-07T02:01:49;19.40;64.30
11426;DHT22;5769;47.998;7.788;2022-12-07T02:04:15;19.40;64.30
11426;DHT22;5769;47.998;7.788;2022-12-07T02:06:43;19.40;64.30
11426;DHT22;5769;47.998;7.788;2022-12-07T02:09:11;19.40;64.30
11426;DHT22;5769;47.998;7.788;2022-12-07T02:11:38;19.50;64.40
11426;DHT22;5769;47.998;7.788;2022-12-07T02:14:05;19.40;64.30
11426;DHT22;5769;47.998;7.788;2022-12-07T02:16:38;19.40;64.40
11426;DHT22;5769;47.998;7.788;2022-12-07T02:22:35;19.40;64.40
11426;DHT22;5769;47.998;7.788;2022-12-07T02:25:13;19.40;64.40
11426;DHT22;5769;47.998;7.788;2022-12-07T02:27:46;19.40;64.40
11426;DHT22;5769;47.998;7.788;2022-12-07T02:30:16;19.40;64.40
11426;DHT22;5769;47.998;7.788;2022-12-07T02:32:50;19.40;64.40
11426;DHT22;5769;47.998;7.788;2022-12-07T02:35:20;19.40;64.40
11426;DHT22;5769;47.998;7.788;2022-12-07T02:37:53;19.40;64.40
11426;DHT22;5769;47.998;7.788;2022-12-07T02:40:27;19.40;64.40
11426;DHT22;5769;47.998;7.788;2022-12-07T02:42:59;19.40;64.40
11426;DHT22;5769;47.998;7.788;2022-12-07T02:45:31;19.40;65.20
11426;DHT22;5769;47.998;7.788;2022-12-07T02:47:59;19.40;64.40
11426;DHT22;5769;47.998;7.788;2022-12-07T02:50:27;19.40;64.50
11426;DHT22;5769;47.998;7.788;2022-12-07T02:52:55;19.40;64.50
11426;DHT22;5769;47.998;7.788;2022-12-07T02:55:27;19.40;64.50
11426;DHT22;5769;47.998;7.788;2022-12-07T02:58:08;19.40;64.50
11426;DHT22;5769;47.998;7.788;2022-12-07T03:00:46;19.40;64.50
11426;DHT22;5769;47.998;7.788;2022-12-07T03:03:15;19.40;64.50
11426;DHT22;5769;47.998;7.788;2022-12-07T03:05:54;19.40;64.50
11426;DHT22;5769;47.998;7.788;2022-12-07T03:08:31;19.40;64.50
11426;DHT22;5769;47.998;7.788;2022-12-07T03:11:05;19.40;64.50
11426;DHT22;5769;47.998;7.788;2022-12-07T03:13:37;19.40;64.50
11426;DHT22;5769;47.998;7.788;2022-12-07T03:16:09;19.40;64.50
11426;DHT22;5769;47.998;7.788;2022-12-07T03:18:42;19.40;65.30
11426;DHT22;5769;47.998;7.788;2022-12-07T03:21:13;19.40;64.60
11426;DHT22;5769;47.998;7.788;2022-12-07T03:23:44;19.40;64.60
11426;DHT22;5769;47.998;7.788;2022-12-07T03:26:13;19.40;64.60
11426;DHT22;5769;47.998;7.788;2022-12-07T03:28:44;19.40;64.60
11426;DHT22;5769;47.998;7.788;2022-12-07T03:31:17;19.40;64.50
11426;DHT22;5769;47.998;7.788;2022-12-07T03:33:49;19.40;64.50
11426;DHT22;5769;47.998;7.788;2022-12-07T03:36:23;19.40;64.60
11426;DHT22;5769;47.998;7.788;2022-12-07T03:38:56;19.40;64.50
11426;DHT22;5769;47.998;7.788;2022-12-07T03:41:26;19.40;64.50
11426;DHT22;5769;47.998;7.788;2022-12-07T03:43:55;19.40;64.60
11426;DHT22;5769;47.998;7.788;2022-12-07T03:46:27;19.40;64.60
11426;DHT22;5769;47.998;7.788;2022-12-07T03:49:00;19.40;64.60
11426;DHT22;5769;47.998;7.788;2022-12-07T03:51:36;19.40;64.50
11426;DHT22;5769;47.998;7.788;2022-12-07T03:54:10;19.40;64.60
11426;DHT22;5769;47.998;7.788;2022-12-07T03:56:38;19.40;64.60
11426;DHT22;5769;47.998;7.788;2022-12-07T03:59:05;19.40;64.60
11426;DHT22;5769;47.998;7.788;2022-12-07T04:01:34;19.30;64.50
11426;DHT22;5769;47.998;7.788;2022-12-07T04:04:01;19.40;64.60
11426;DHT22;5769;47.998;7.788;2022-12-07T04:06:27;19.30;64.60
11426;DHT22;5769;47.998;7.788;2022-12-07T04:08:54;19.40;64.60
11426;DHT22;5769;47.998;7.788;2022-12-07T04:11:21;19.30;64.60
11426;DHT22;5769;47.998;7.788;2022-12-07T04:13:47;19.40;64.60
11426;DHT22;5769;47.998;7.788;2022-12-07T04:16:31;19.30;64.50
11426;DHT22;5769;47.998;7.788;2022-12-07T04:18:59;19.40;64.60
11426;DHT22;5769;47.998;7.788;2022-12-07T04:21:26;19.40;64.60
11426;DHT22;5769;47.998;7.788;2022-12-07T04:23:53;19.40;64.60
11426;DHT22;5769;47.998;7.788;2022-12-07T04:26:19;19.40;64.60
11426;DHT22;5769;47.998;7.788;2022-12-07T04:28:46;19.30;64.60
11426;DHT22;5769;47.998;7.788;2022-12-07T04:31:13;19.30;64.50
11426;DHT22;5769;47.998;7.788;2022-12-07T04:33:40;19.40;64.60
11426;DHT22;5769;47.998;7.788;2022-12-07T04:36:08;19.40;64.60
11426;DHT22;5769;47.998;7.788;2022-12-07T04:38:35;19.30;64.50
11426;DHT22;5769;47.998;7.788;2022-12-07T04:41:05;19.30;64.60
11426;DHT22;5769;47.998;7.788;2022-12-07T04:43:32;19.30;64.60
11426;DHT22;5769;47.998;7.788;2022-12-07T04:45:59;19.30;64.50
11426;DHT22;5769;47.998;7.788;2022-12-07T04:48:25;19.30;64.60
11426;DHT22;5769;47.998;7.788;2022-12-07T04:50:52;19.30;64.50
11426;DHT22;5769;47.998;7.788;2022-12-07T04:53:20;19.30;64.50
11426;DHT22;5769;47.998;7.788;2022-12-07T04:55:47;19.30;64.50
11426;DHT22;5769;47.998;7.788;2022-12-07T04:58:13;19.30;64.50
11426;DHT22;5769;47.998;7.788;2022-12-07T05:00:40;19.30;64.50
11426;DHT22;5769;47.998;7.788;2022-12-07T05:03:07;19.30;64.50
11426;DHT22;5769;47.998;7.788;2022-12-07T05:05:34;19.30;64.50
11426;DHT22;5769;47.998;7.788;2022-12-07T05:08:00;19.30;64.50
11426;DHT22;5769;47.998;7.788;2022-12-07T05:10:28;19.30;64.60
11426;DHT22;5769;47.998;7.788;2022-12-07T05:12:55;19.30;64.50
11426;DHT22;5769;47.998;7.788;2022-12-07T05:15:22;19.30;64.50
11426;DHT22;5769;47.998;7.788;2022-12-07T05:17:48;19.30;64.50
11426;DHT22;5769;47.998;7.788;2022-12-07T05:20:17;19.30;64.50
11426;DHT22;5769;47.998;7.788;2022-12-07T05:22:44;19.30;64.50
11426;DHT22;5769;47.998;7.788;2022-12-07T05:25:11;19.30;64.50
11426;DHT22;5769;47.998;7.788;2022-12-07T05:27:39;19.30;64.50
11426;DHT22;5769;47.998;7.788;2022-12-07T05:30:06;19.30;64.50
11426;DHT22;5769;47.998;7.788;2022-12-07T05:32:33;19.30;64.50
11426;DHT22;5769;47.998;7.788;2022-12-07T05:35:00;19.30;64.60
11426;DHT22;5769;47.998;7.788;2022-12-07T05:37:27;19.30;64.50
11426;DHT22;5769;47.998;7.788;2022-12-07T05:39:53;19.30;64.60
11426;DHT22;5769;47.998;7.788;2022-12-07T05:42:20;19.30;64.50
11426;DHT22;5769;47.998;7.788;2022-12-07T05:44:48;19.30;64.50
11426;DHT22;5769;47.998;7.788;2022-12-07T05:47:15;19.30;64.50
11426;DHT22;5769;47.998;7.788;2022-12-07T05:49:42;19.30;64.50
11426;DHT22;5769;47.998;7.788;2022-12-07T05:52:09;19.30;64.60
11426;DHT22;5769;47.998;7.788;2022-12-07T05:54:35;19.30;64.60
11426;DHT22;5769;47.998;7.788;2022-12-07T05:57:02;19.30;64.50
11426;DHT22;5769;47.998;7.788;2022-12-07T05:59:29;19.30;64.60
11426;DHT22;5769;47.998;7.788;2022-12-07T06:01:58;19.30;64.60
11426;DHT22;5769;47.998;7.788;2022-12-07T06:04:27;19.30;64.60
11426;DHT22;5769;47.998;7.788;2022-12-07T06:06:54;19.30;64.60
11426;DHT22;5769;47.998;7.788;2022-12-07T06:09:22;19.30;64.50
11426;DHT22;5769;47.998;7.788;2022-12-07T06:11:49;19.30;64.50
11426;DHT22;5769;47.998;7.788;2022-12-07T06:14:34;19.30;64.50
11426;DHT22;5769;47.998;7.788;2022-12-07T06:17:02;19.30;64.50
11426;DHT22;5769;47.998;7.788;2022-12-07T06:19:28;19.30;64.60
11426;DHT22;5769;47.998;7.788;2022-12-07T06:21:55;19.30;64.60
11426;DHT22;5769;47.998;7.788;2022-12-07T06:24:23;19.30;64.80
11426;DHT22;5769;47.998;7.788;2022-12-07T06:26:50;19.30;64.90
11426;DHT22;5769;47.998;7.788;2022-12-07T06:29:17;19.40;65.20
11426;DHT22;5769;47.998;7.788;2022-12-07T06:31:44;19.30;65.30
11426;DHT22;5769;47.998;7.788;2022-12-07T06:34:14;19.30;65.20
11426;DHT22;5769;47.998;7.788;2022-12-07T06:36:41;19.30;65.20
11426;DHT22;5769;47.998;7.788;2022-12-07T06:39:08;19.40;65.30
11426;DHT22;5769;47.998;7.788;2022-12-07T06:41:35;19.30;65.20
11426;DHT22;5769;47.998;7.788;2022-12-07T06:44:02;19.40;65.20
11426;DHT22;5769;47.998;7.788;2022-12-07T06:46:29;19.40;65.30
11426;DHT22;5769;47.998;7.788;2022-12-07T06:48:56;19.40;65.30
11426;DHT22;5769;47.998;7.788;2022-12-07T06:51:24;19.40;65.30
11426;DHT22;5769;47.998;7.788;2022-12-07T06:53:51;19.40;65.30
11426;DHT22;5769;47.998;7.788;2022-12-07T06:56:18;19.40;65.00
11426;DHT22;5769;47.998;7.788;2022-12-07T06:58:44;19.30;64.70
11426;DHT22;5769;47.998;7.788;2022-12-07T07:01:12;19.40;64.30
11426;DHT22;5769;47.998;7.788;2022-12-07T07:03:40;19.30;64.40
11426;DHT22;5769;47.998;7.788;2022-12-07T07:06:07;19.40;64.10
11426;DHT22;5769;47.998;7.788;2022-12-07T07:08:35;19.30;64.30
11426;DHT22;5769;47.998;7.788;2022-12-07T07:11:03;19.30;64.70
11426;DHT22;5769;47.998;7.788;2022-12-07T07:13:30;19.30;64.90
11426;DHT22;5769;47.998;7.788;2022-12-07T07:15:56;19.30;64.90
11426;DHT22;5769;47.998;7.788;2022-12-07T07:18:23;19.40;65.00
11426;DHT22;5769;47.998;7.788;2022-12-07T07:20:50;19.40;65.00
11426;DHT22;5769;47.998;7.788;2022-12-07T07:23:17;19.40;65.00
11426;DHT22;5769;47.998;7.788;2022-12-07T07:25:45;19.30;64.90
11426;DHT22;5769;47.998;7.788;2022-12-07T07:28:12;19.30;64.90
11426;DHT22;5769;47.998;7.788;2022-12-07T07:30:39;19.30;64.90
11426;DHT22;5769;47.998;7.788;2022-12-07T07:33:06;19.40;64.60
11426;DHT22;5769;47.998;7.788;2022-12-07T07:35:34;19.30;64.30
11426;DHT22;5769;47.998;7.788;2022-12-07T07:38:01;19.40;64.80
11426;DHT22;5769;47.998;7.788;2022-12-07T07:40:28;19.40;65.00
11426;DHT22;5769;47.998;7.788;2022-12-07T07:42:57;19.40;65.00
11426;DHT22;5769;47.998;7.788;2022-12-07T07:45:25;19.40;64.70
11426;DHT22;5769;47.998;7.788;2022-12-07T07:47:53;19.30;64.90
11426;DHT22;5769;47.998;7.788;2022-12-07T07:50:20;19.40;65.10
11426;DHT22;5769;47.998;7.788;2022-12-07T07:52:47;19.40;65.10
11426;DHT22;5769;47.998;7.788;2022-12-07T07:55:14;19.40;65.10
11426;DHT22;5769;47.998;7.788;2022-12-07T07:57:41;19.30;65.10
11426;DHT22;5769;47.998;7.788;2022-12-07T08:00:12;19.40;65.10
11426;DHT22;5769;47.998;7.788;2022-12-07T08:02:39;19.30;65.10
11426;DHT22;5769;47.998;7.788;2022-12-07T08:05:07;19.40;65.10
11426;DHT22;5769;47.998;7.788;2022-12-07T08:07:34;19.40;65.10
11426;DHT22;5769;47.998;7.788;2022-12-07T08:10:01;19.40;65.10
11426;DHT22;5769;47.998;7.788;2022-12-07T08:12:28;19.40;65.10
11426;DHT22;5769;47.998;7.788;2022-12-07T08:14:54;19.40;65.10
11426;DHT22;5769;47.998;7.788;2022-12-07T08:17:22;19.40;65.10
11426;DHT22;5769;47.998;7.788;2022-12-07T08:19:49;19.40;65.10
11426;DHT22;5769;47.998;7.788;2022-12-07T08:22:16;19.40;65.10
11426;DHT22;5769;47.998;7.788;2022-12-07T08:24:42;19.40;65.20
11426;DHT22;5769;47.998;7.788;2022-12-07T08:27:09;19.40;65.20
11426;DHT22;5769;47.998;7.788;2022-12-07T08:29:36;19.40;65.20
11426;DHT22;5769;47.998;7.788;2022-12-07T08:32:03;19.40;65.90
11426;DHT22;5769;47.998;7.788;2022-12-07T08:34:31;19.40;65.20
11426;DHT22;5769;47.998;7.788;2022-12-07T08:36:58;19.40;65.20
11426;DHT22;5769;47.998;7.788;2022-12-07T08:39:24;19.40;65.20
11426;DHT22;5769;47.998;7.788;2022-12-07T08:41:51;19.40;65.20
11426;DHT22;5769;47.998;7.788;2022-12-07T08:44:18;19.40;65.20
11426;DHT22;5769;47.998;7.788;2022-12-07T08:46:47;19.40;65.20
11426;DHT22;5769;47.998;7.788;2022-12-07T08:49:17;19.40;65.20
11426;DHT22;5769;47.998;7.788;2022-12-07T08:51:46;19.40;65.20
11426;DHT22;5769;47.998;7.788;2022-12-07T08:54:15;19.30;65.20
11426;DHT22;5769;47.998;7.788;2022-12-07T08:56:43;19.40;65.20
11426;DHT22;5769;47.998;7.788;2022-12-07T08:59:11;19.40;65.20
11426;DHT22;5769;47.998;7.788;2022-12-07T09:01:39;19.40;65.10
11426;DHT22;5769;47.998;7.788;2022-12-07T09:04:05;19.40;65.20
11426;DHT22;5769;47.998;7.788;2022-12-07T09:06:33;19.40;65.10
11426;DHT22;5769;47.998;7.788;2022-12-07T09:09:02;19.30;65.00
11426;DHT22;5769;47.998;7.788;2022-12-07T09:11:29;19.30;64.70
11426;DHT22;5769;47.998;7.788;2022-12-07T09:13:56;19.40;65.00
11426;DHT22;5769;47.998;7.788;2022-12-07T09:16:22;19.40;65.20
11426;DHT22;5769;47.998;7.788;2022-12-07T09:18:49;19.40;65.10
11426;DHT22;5769;47.998;7.788;2022-12-07T09:21:16;19.40;65.10
11426;DHT22;5769;47.998;7.788;2022-12-07T09:23:43;19.40;65.10
11426;DHT22;5769;47.998;7.788;2022-12-07T09:26:11;19.40;65.00
11426;DHT22;5769;47.998;7.788;2022-12-07T09:28:38;19.30;65.00
11426;DHT22;5769;47.998;7.788;2022-12-07T09:31:05;19.40;64.90
11426;DHT22;5769;47.998;7.788;2022-12-07T09:33:32;19.40;65.00
11426;DHT22;5769;47.998;7.788;2022-12-07T09:35:59;19.40;65.00
11426;DHT22;5769;47.998;7.788;2022-12-07T09:38:25;19.30;65.00
11426;DHT22;5769;47.998;7.788;2022-12-07T09:40:54;19.40;65.00
11426;DHT22;5769;47.998;7.788;2022-12-07T09:43:24;19.30;65.00
11426;DHT22;5769;47.998;7.788;2022-12-07T09:45:53;19.40;65.00
11426;DHT22;5769;47.998;7.788;2022-12-07T09:48:30;19.30;64.90
11426;DHT22;5769;47.998;7.788;2022-12-07T09:50:58;19.40;65.00
11426;DHT22;5769;47.998;7.788;2022-12-07T09:53:27;19.40;65.00
11426;DHT22;5769;47.998;7.788;2022-12-07T09:55:55;19.30;65.00
11426;DHT22;5769;47.998;7.788;2022-12-07T09:58:25;19.30;64.80
11426;DHT22;5769;47.998;7.788;2022-12-07T10:00:53;19.40;65.00
11426;DHT22;5769;47.998;7.788;2022-12-07T10:03:21;19.40;64.90
11426;DHT22;5769;47.998;7.788;2022-12-07T10:05:51;19.40;65.00
11426;DHT22;5769;47.998;7.788;2022-12-07T10:08:18;19.30;64.90
11426;DHT22;5769;47.998;7.788;2022-12-07T10:10:50;19.30;64.90
11426;DHT22;5769;47.998;7.788;2022-12-07T10:13:20;19.40;64.90
11426;DHT22;5769;47.998;7.788;2022-12-07T10:15:50;19.30;64.60
11426;DHT22;5769;47.998;7.788;2022-12-07T10:18:29;19.30;64.30
11426;DHT22;5769;47.998;7.788;2022-12-07T10:21:02;19.30;64.30
11426;DHT22;5769;47.998;7.788;2022-12-07T10:23:29;19.30;64.60
11426;DHT22;5769;47.998;7.788;2022-12-07T10:25:56;19.30;64.80
11426;DHT22;5769;47.998;7.788;2022-12-07T10:28:23;19.30;64.90
11426;DHT22;5769;47.998;7.788;2022-12-07T10:30:54;19.40;64.50
11426;DHT22;5769;47.998;7.788;2022-12-07T10:33:34;19.30;64.40
11426;DHT22;5769;47.998;7.788;2022-12-07T10:36:17;19.30;64.90
11426;DHT22;5769;47.998;7.788;2022-12-07T10:38:46;19.30;64.90
11426;DHT22;5769;47.998;7.788;2022-12-07T10:41:13;19.30;64.90
11426;DHT22;5769;47.998;7.788;2022-12-07T10:43:50;19.30;65.00
11426;DHT22;5769;47.998;7.788;2022-12-07T10:50:14;19.30;65.00
11426;DHT22;5769;47.998;7.788;2022-12-07T10:53:12;19.40;65.00
11426;DHT22;5769;47.998;7.788;2022-12-07T10:55:56;19.30;65.00
11426;DHT22;5769;47.998;7.788;2022-12-07T10:58:42;19.30;65.00
11426;DHT22;5769;47.998;7.788;2022-12-07T11:01:15;19.40;65.00
11426;DHT22;5769;47.998;7.788;2022-12-07T11:04:00;19.40;65.10
11426;DHT22;5769;47.998;7.788;2022-12-07T11:06:34;19.40;65.10
11426;DHT22;5769;47.998;7.788;2022-12-07T11:09:16;19.30;65.10
11426;DHT22;5769;47.998;7.788;2022-12-07T11:11:53;19.40;65.10
11426;DHT22;5769;47.998;7.788;2022-12-07T11:14:28;19.30;65.10
11426;DHT22;5769;47.998;7.788;2022-12-07T11:17:03;19.40;65.10
11426;DHT22;5769;47.998;7.788;2022-12-07T11:19:49;19.30;65.10
11426;DHT22;5769;47.998;7.788;2022-12-07T11:22:22;19.30;65.10
11426;DHT22;5769;47.998;7.788;2022-12-07T11:24:57;19.40;65.20
11426;DHT22;5769;47.998;7.788;2022-12-07T11:27:34;19.40;65.20
11426;DHT22;5769;47.998;7.788;2022-12-07T11:30:10;19.30;65.10
11426;DHT22;5769;47.998;7.788;2022-12-07T11:32:49;19.30;65.10
11426;DHT22;5769;47.998;7.788;2022-12-07T11:35:24;19.30;65.10
11426;DHT22;5769;47.998;7.788;2022-12-07T11:37:57;19.30;65.20
11426;DHT22;5769;47.998;7.788;2022-12-07T11:40:28;19.40;65.20
11426;DHT22;5769;47.998;7.788;2022-12-07T11:42:58;19.30;65.10
11426;DHT22;5769;47.998;7.788;2022-12-07T11:45:27;19.40;65.20
11426;DHT22;5769;47.998;7.788;2022-12-07T11:47:59;19.30;65.10
11426;DHT22;5769;47.998;7.788;2022-12-07T11:50:33;19.40;65.20
11426;DHT22;5769;47.998;7.788;2022-12-07T11:53:03;19.30;65.10
11426;DHT22;5769;47.998;7.788;2022-12-07T11:55:41;19.30;65.10
11426;DHT22;5769;47.998;7.788;2022-12-07T11:58:20;19.40;65.10
11426;DHT22;5769;47.998;7.788;2022-12-07T12:00:49;19.30;65.10
11426;DHT22;5769;47.998;7.788;2022-12-07T12:03:23;19.30;65.10
11426;DHT22;5769;47.998;7.788;2022-12-07T12:05:56;19.30;65.10
11426;DHT22;5769;47.998;7.788;2022-12-07T12:08:27;19.30;65.10
11426;DHT22;5769;47.998;7.788;2022-12-07T12:11:00;19.30;65.10
11426;DHT22;5769;47.998;7.788;2022-12-07T12:13:49;19.30;65.10
11426;DHT22;5769;47.998;7.788;2022-12-07T12:16:39;19.30;65.00
11426;DHT22;5769;47.998;7.788;2022-12-07T12:19:20;19.30;65.10
11426;DHT22;5769;47.998;7.788;2022-12-07T12:21:56;19.30;65.00
11426;DHT22;5769;47.998;7.788;2022-12-07T12:24:25;19.30;65.10
11426;DHT22;5769;47.998;7.788;2022-12-07T12:26:56;19.30;65.00
11426;DHT22;5769;47.998;7.788;2022-12-07T12:29:30;19.40;65.00
11426;DHT22;5769;47.998;7.788;2022-12-07T12:32:17;19.40;65.00
11426;DHT22;5769;47.998;7.788;2022-12-07T12:35:02;19.40;65.00
11426;DHT22;5769;47.998;7.788;2022-12-07T12:37:47;19.30;65.10
11426;DHT22;5769;47.998;7.788;2022-12-07T12:40:45;19.30;64.80
11426;DHT22;5769;47.998;7.788;2022-12-07T12:46:48;19.30;65.00
11426;DHT22;5769;47.998;7.788;2022-12-07T12:49:37;19.30;65.00
11426;DHT22;5769;47.998;7.788;2022-12-07T12:55:21;19.30;65.00
11426;DHT22;5769;47.998;7.788;2022-12-07T12:58:28;19.30;64.90
11426;DHT22;5769;47.998;7.788;2022-12-07T13:04:39;19.30;65.00
11426;DHT22;5769;47.998;7.788;2022-12-07T13:07:47;19.30;64.90
11426;DHT22;5769;47.998;7.788;2022-12-07T13:10:26;19.30;65.00
11426;DHT22;5769;47.998;7.788;2022-12-07T13:12:56;19.30;64.60
11426;DHT22;5769;47.998;7.788;2022-12-07T13:15:35;19.30;65.00
11426;DHT22;5769;47.998;7.788;2022-12-07T13:18:14;19.30;65.00
11426;DHT22;5769;47.998;7.788;2022-12-07T13:20:50;19.30;64.90
11426;DHT22;5769;47.998;7.788;2022-12-07T13:23:39;19.30;64.90
11426;DHT22;5769;47.998;7.788;2022-12-07T13:26:23;19.30;65.00
11426;DHT22;5769;47.998;7.788;2022-12-07T13:28:52;19.30;65.00
11426;DHT22;5769;47.998;7.788;2022-12-07T13:31:26;19.30;64.90
11426;DHT22;5769;47.998;7.788;2022-12-07T13:33:55;19.30;64.90
11426;DHT22;5769;47.998;7.788;2022-12-07T13:36:24;19.30;65.70
11426;DHT22;5769;47.998;7.788;2022-12-07T13:38:54;19.30;64.90
11426;DHT22;5769;47.998;7.788;2022-12-07T13:41:23;19.30;64.90
11426;DHT22;5769;47.998;7.788;2022-12-07T13:44:01;19.30;65.00
11426;DHT22;5769;47.998;7.788;2022-12-07T13:46:42;19.30;64.90
11426;DHT22;5769;47.998;7.788;2022-12-07T13:49:18;19.30;64.90
11426;DHT22;5769;47.998;7.788;2022-12-07T13:51:45;19.30;64.90
11426;DHT22;5769;47.998;7.788;2022-12-07T13:54:12;19.30;64.90
11426;DHT22;5769;47.998;7.788;2022-12-07T13:56:41;19.30;64.90
11426;DHT22;5769;47.998;7.788;2022-12-07T13:59:13;19.30;65.00
11426;DHT22;5769;47.998;7.788;2022-12-07T14:01:41;19.30;65.00
11426;DHT22;5769;47.998;7.788;2022-12-07T14:04:33;19.30;65.00
11426;DHT22;5769;47.998;7.788;2022-12-07T14:07:15;19.30;65.00
11426;DHT22;5769;47.998;7.788;2022-12-07T14:09:54;19.30;65.00
11426;DHT22;5769;47.998;7.788;2022-12-07T14:12:22;19.30;65.00
11426;DHT22;5769;47.998;7.788;2022-12-07T14:14:50;19.30;65.00
11426;DHT22;5769;47.998;7.788;2022-12-07T14:17:19;19.30;65.00
11426;DHT22;5769;47.998;7.788;2022-12-07T14:19:49;19.30;65.00
11426;DHT22;5769;47.998;7.788;2022-12-07T14:22:29;19.30;65.00
11426;DHT22;5769;47.998;7.788;2022-12-07T14:25:24;19.30;65.00
11426;DHT22;5769;47.998;7.788;2022-12-07T14:27:55;19.30;65.00
11426;DHT22;5769;47.998;7.788;2022-12-07T14:30:25;19.30;65.00
11426;DHT22;5769;47.998;7.788;2022-12-07T14:32:54;19.30;65.00
11426;DHT22;5769;47.998;7.788;2022-12-07T14:35:20;19.30;65.00
11426;DHT22;5769;47.998;7.788;2022-12-07T14:37:48;19.30;65.70
11426;DHT22;5769;47.998;7.788;2022-12-07T14:40:17;19.30;65.00
11426;DHT22;5769;47.998;7.788;2022-12-07T14:42:45;19.30;65.00
11426;DHT22;5769;47.998;7.788;2022-12-07T14:45:16;19.30;65.00
11426;DHT22;5769;47.998;7.788;2022-12-07T14:47:43;19.30;65.00
11426;DHT22;5769;47.998;7.788;2022-12-07T14:50:12;19.30;65.00
11426;DHT22;5769;47.998;7.788;2022-12-07T14:52:39;19.30;65.00
11426;DHT22;5769;47.998;7.788;2022-12-07T14:55:13;19.30;65.00
11426;DHT22;5769;47.998;7.788;2022-12-07T14:57:40;19.30;64.90
11426;DHT22;5769;47.998;7.788;2022-12-07T15:00:10;19.30;65.00
11426;DHT22;5769;47.998;7.788;2022-12-07T15:02:40;19.30;65.00
11426;DHT22;5769;47.998;7.788;2022-12-07T15:05:08;19.30;65.00
11426;DHT22;5769;47.998;7.788;2022-12-07T15:07:34;19.30;64.90
11426;DHT22;5769;47.998;7.788;2022-12-07T15:10:01;19.30;64.30
11426;DHT22;5769;47.998;7.788;2022-12-07T15:12:28;19.30;64.30
11426;DHT22;5769;47.998;7.788;2022-12-07T15:14:55;19.30;64.80
11426;DHT22;5769;47.998;7.788;2022-12-07T15:17:21;19.30;64.90
11426;DHT22;5769;47.998;7.788;2022-12-07T15:19:49;19.30;64.90
11426;DHT22;5769;47.998;7.788;2022-12-07T15:22:16;19.30;64.90
11426;DHT22;5769;47.998;7.788;2022-12-07T15:24:43;19.30;64.90
11426;DHT22;5769;47.998;7.788;2022-12-07T15:27:09;19.30;65.00
11426;DHT22;5769;47.998;7.788;2022-12-07T15:29:36;19.30;65.00
11426;DHT22;5769;47.998;7.788;2022-12-07T15:32:03;19.30;65.00
11426;DHT22;5769;47.998;7.788;2022-12-07T15:34:30;19.30;64.90
11426;DHT22;5769;47.998;7.788;2022-12-07T15:36:58;19.30;64.70
11426;DHT22;5769;47.998;7.788;2022-12-07T15:39:25;19.30;64.80
11426;DHT22;5769;47.998;7.788;2022-12-07T15:41:52;19.30;64.90
11426;DHT22;5769;47.998;7.788;2022-12-07T15:44:18;19.30;64.50
11426;DHT22;5769;47.998;7.788;2022-12-07T15:47:04;19.30;64.50
11426;DHT22;5769;47.998;7.788;2022-12-07T15:49:31;19.30;63.60
11426;DHT22;5769;47.998;7.788;2022-12-07T15:51:59;19.40;62.60
11426;DHT22;5769;47.998;7.788;2022-12-07T15:54:27;19.40;62.20
11426;DHT22;5769;47.998;7.788;2022-12-07T15:56:54;19.40;62.00
11426;DHT22;5769;47.998;7.788;2022-12-07T15:59:21;19.40;62.10
11426;DHT22;5769;47.998;7.788;2022-12-07T16:01:48;19.40;62.00
11426;DHT22;5769;47.998;7.788;2022-12-07T16:04:15;19.40;62.10
11426;DHT22;5769;47.998;7.788;2022-12-07T16:06:41;19.40;62.40
11426;DHT22;5769;47.998;7.788;2022-12-07T16:09:09;19.40;62.40
11426;DHT22;5769;47.998;7.788;2022-12-07T16:11:36;19.40;62.50
11426;DHT22;5769;47.998;7.788;2022-12-07T16:14:03;19.40;62.50
11426;DHT22;5769;47.998;7.788;2022-12-07T16:16:30;19.40;62.60
11426;DHT22;5769;47.998;7.788;2022-12-07T16:18:57;19.40;62.30
11426;DHT22;5769;47.998;7.788;2022-12-07T16:21:24;19.40;62.10